sensor_id;sensor_type;location;lat;lon;timestamp;pressure;altitude;pressure_sealevel;temperature;humidity
29815;BME280;16708;50.426;7.664;2023-05-03T00:04:15;997.95;;;3.70;100.00
29815;BME280;16708;50.426;7.664;2023-05-03T00:09:08;997.85;;;3.58;100.00
29815;BME280;16708;50.426;7.664;2023-05-03T00:14:00;997.87;;;3.44;100.00
29815;BME280;16708;50.426;7.664;2023-05-03T00:18:53;997.68;;;3.39;100.00
29815;BME280;16708;50.426;7.664;2023-05-03T00:23:47;997.66;;;3.29;100.00
29815;BME280;16708;50.426;7.664;2023-05-03T00:28:40;997.60;;;3.22;100.00
29815;BME280;16708;50.426;7.664;2023-05-03T00:33:34;997.56;;;3.16;100.00
29815;BME280;16708;50.426;7.664;2023-05-03T00:38:26;997.53;;;3.08;100.00
29815;BME280;16708;50.426;7.664;2023-05-03T00:43:19;997.39;;;3.05;100.00
29815;BME280;16708;50.426;7.664;2023-05-03T00:48:14;997.39;;;3.03;100.00
29815;BME280;16708;50.426;7.664;2023-05-03T00:53:08;997.52;;;3.17;100.00
29815;BME280;16708;50.426;7.664;2023-05-03T00:58:01;997.48;;;3.30;100.00
29815;BME280;16708;50.426;7.664;2023-05-03T01:02:56;997.47;;;3.26;100.00
29815;BME280;16708;50.426;7.664;2023-05-03T01:07:52;997.45;;;3.25;100.00
29815;BME280;16708;50.426;7.664;2023-05-03T01:12:43;997.47;;;3.17;100.00
29815;BME280;16708;50.426;7.664;2023-05-03T01:17:36;997.45;;;3.26;100.00
29815;BME280;16708;50.426;7.664;2023-05-03T01:22:30;997.51;;;3.15;100.00
29815;BME280;16708;50.426;7.664;2023-05-03T01:27:24;997.48;;;3.02;100.00
29815;BME280;16708;50.426;7.664;2023-05-03T01:32:18;997.58;;;2.98;100.00
29815;BME280;16708;50.426;7.664;2023-05-03T01:37:11;997.68;;;2.96;100.00
29815;BME280;16708;50.426;7.664;2023-05-03T01:42:05;997.59;;;2.97;100.00
29815;BME280;16708;50.426;7.664;2023-05-03T01:46:59;997.74;;;3.07;100.00
29815;BME280;16708;50.426;7.664;2023-05-03T01:51:53;997.87;;;3.04;100.00
29815;BME280;16708;50.426;7.664;2023-05-03T01:56:47;997.82;;;2.84;100.00
29815;BME280;16708;50.426;7.664;2023-05-03T02:01:40;997.79;;;2.76;100.00
29815;BME280;16708;50.426;7.664;2023-05-03T02:06:34;997.91;;;2.72;100.00
29815;BME280;16708;50.426;7.664;2023-05-03T02:11:28;997.90;;;2.77;100.00
29815;BME280;16708;50.426;7.664;2023-05-03T02:16:23;997.86;;;2.67;100.00
29815;BME280;16708;50.426;7.664;2023-05-03T02:21:14;997.80;;;2.49;100.00
29815;BME280;16708;50.426;7.664;2023-05-03T02:26:10;997.78;;;2.48;100.00
29815;BME280;16708;50.426;7.664;2023-05-03T02:31:00;997.85;;;2.38;100.00
29815;BME280;16708;50.426;7.664;2023-05-03T02:35:56;997.90;;;2.32;100.00
29815;BME280;16708;50.426;7.664;2023-05-03T02:40:49;997.87;;;2.24;100.00
29815;BME280;16708;50.426;7.664;2023-05-03T02:45:43;997.87;;;2.01;100.00
29815;BME280;16708;50.426;7.664;2023-05-03T02:50:37;997.91;;;1.99;100.00
29815;BME280;16708;50.426;7.664;2023-05-03T02:55:32;997.85;;;1.91;100.00
29815;BME280;16708;50.426;7.664;2023-05-03T03:00:24;997.79;;;1.84;100.00
29815;BME280;16708;50.426;7.664;2023-05-03T03:05:21;997.74;;;1.86;100.00
29815;BME280;16708;50.426;7.664;2023-05-03T03:10:12;997.87;;;1.83;100.00
29815;BME280;16708;50.426;7.664;2023-05-03T03:15:06;997.90;;;1.77;100.00
29815;BME280;16708;50.426;7.664;2023-05-03T03:20:00;997.92;;;1.64;100.00
29815;BME280;16708;50.426;7.664;2023-05-03T03:24:55;997.90;;;1.60;100.00
29815;BME280;16708;50.426;7.664;2023-05-03T03:29:47;997.82;;;1.63;100.00
29815;BME280;16708;50.426;7.664;2023-05-03T03:34:41;997.80;;;1.51;100.00
29815;BME280;16708;50.426;7.664;2023-05-03T03:39:34;997.87;;;1.47;100.00
29815;BME280;16708;50.426;7.664;2023-05-03T03:44:28;997.87;;;1.50;100.00
29815;BME280;16708;50.426;7.664;2023-05-03T03:49:23;997.81;;;1.50;100.00
29815;BME280;16708;50.426;7.664;2023-05-03T03:54:17;997.86;;;1.54;100.00
29815;BME280;16708;50.426;7.664;2023-05-03T03:59:11;997.83;;;1.53;100.00
29815;BME280;16708;50.426;7.664;2023-05-03T04:04:05;997.79;;;1.55;100.00
29815;BME280;16708;50.426;7.664;2023-05-03T04:08:58;997.77;;;1.57;100.00
29815;BME280;16708;50.426;7.664;2023-05-03T04:13:54;997.79;;;1.63;100.00
29815;BME280;16708;50.426;7.664;2023-05-03T04:18:46;997.84;;;1.63;100.00
29815;BME280;16708;50.426;7.664;2023-05-03T04:23:40;997.77;;;1.69;100.00
29815;BME280;16708;50.426;7.664;2023-05-03T04:28:33;997.74;;;1.61;100.00
29815;BME280;16708;50.426;7.664;2023-05-03T04:33:28;997.78;;;1.58;100.00
29815;BME280;16708;50.426;7.664;2023-05-03T04:38:22;997.78;;;1.64;100.00
29815;BME280;16708;50.426;7.664;2023-05-03T04:43:17;997.86;;;1.79;100.00
29815;BME280;16708;50.426;7.664;2023-05-03T04:48:11;997.84;;;1.88;100.00
29815;BME280;16708;50.426;7.664;2023-05-03T04:53:05;997.87;;;2.18;100.00
29815;BME280;16708;50.426;7.664;2023-05-03T04:57:58;997.64;;;2.28;100.00
29815;BME280;16708;50.426;7.664;2023-05-03T05:02:52;997.67;;;2.31;100.00
29815;BME280;16708;50.426;7.664;2023-05-03T05:07:46;997.68;;;2.34;100.00
29815;BME280;16708;50.426;7.664;2023-05-03T05:12:40;997.62;;;2.60;100.00
29815;BME280;16708;50.426;7.664;2023-05-03T05:17:33;997.51;;;2.89;100.00
29815;BME280;16708;50.426;7.664;2023-05-03T05:22:27;997.51;;;3.47;100.00
29815;BME280;16708;50.426;7.664;2023-05-03T05:27:22;997.62;;;4.16;100.00
29815;BME280;16708;50.426;7.664;2023-05-03T05:32:17;997.66;;;4.69;100.00
29815;BME280;16708;50.426;7.664;2023-05-03T05:37:11;997.73;;;5.13;100.00
29815;BME280;16708;50.426;7.664;2023-05-03T05:42:05;997.90;;;5.42;100.00
29815;BME280;16708;50.426;7.664;2023-05-03T05:46:58;997.89;;;5.67;100.00
29815;BME280;16708;50.426;7.664;2023-05-03T05:51:53;997.95;;;5.94;100.00
29815;BME280;16708;50.426;7.664;2023-05-03T05:56:47;997.90;;;6.16;100.00
29815;BME280;16708;50.426;7.664;2023-05-03T06:01:41;997.93;;;6.21;100.00
29815;BME280;16708;50.426;7.664;2023-05-03T06:06:35;997.84;;;6.36;100.00
29815;BME280;16708;50.426;7.664;2023-05-03T06:11:29;997.95;;;6.58;100.00
29815;BME280;16708;50.426;7.664;2023-05-03T06:16:24;998.03;;;6.74;100.00
29815;BME280;16708;50.426;7.664;2023-05-03T06:21:18;997.97;;;7.02;100.00
29815;BME280;16708;50.426;7.664;2023-05-03T06:26:13;998.01;;;7.14;100.00
29815;BME280;16708;50.426;7.664;2023-05-03T06:31:07;998.07;;;7.26;100.00
29815;BME280;16708;50.426;7.664;2023-05-03T06:36:01;998.15;;;7.63;100.00
29815;BME280;16708;50.426;7.664;2023-05-03T06:40:55;998.13;;;7.72;100.00
29815;BME280;16708;50.426;7.664;2023-05-03T06:45:49;998.19;;;7.86;100.00
29815;BME280;16708;50.426;7.664;2023-05-03T06:50:42;998.22;;;7.90;100.00
29815;BME280;16708;50.426;7.664;2023-05-03T06:55:36;998.18;;;8.02;100.00
29815;BME280;16708;50.426;7.664;2023-05-03T07:00:30;998.14;;;8.20;100.00
29815;BME280;16708;50.426;7.664;2023-05-03T07:05:25;998.14;;;8.33;100.00
29815;BME280;16708;50.426;7.664;2023-05-03T07:10:19;998.02;;;8.43;100.00
29815;BME280;16708;50.426;7.664;2023-05-03T07:15:14;998.13;;;8.48;100.00
29815;BME280;16708;50.426;7.664;2023-05-03T07:20:08;998.10;;;8.52;100.00
29815;BME280;16708;50.426;7.664;2023-05-03T07:25:02;998.16;;;8.58;100.00
29815;BME280;16708;50.426;7.664;2023-05-03T07:29:57;998.19;;;8.84;100.00
29815;BME280;16708;50.426;7.664;2023-05-03T07:34:50;998.15;;;9.09;100.00
29815;BME280;16708;50.426;7.664;2023-05-03T07:39:44;998.13;;;9.02;100.00
29815;BME280;16708;50.426;7.664;2023-05-03T07:44:38;998.13;;;9.33;100.00
29815;BME280;16708;50.426;7.664;2023-05-03T07:49:32;998.04;;;9.31;100.00
29815;BME280;16708;50.426;7.664;2023-05-03T07:54:27;998.12;;;9.50;93.80
29815;BME280;16708;50.426;7.664;2023-05-03T07:59:21;997.98;;;9.65;89.87
29815;BME280;16708;50.426;7.664;2023-05-03T08:04:15;997.92;;;10.05;94.64
29815;BME280;16708;50.426;7.664;2023-05-03T08:09:09;998.05;;;10.27;76.93
29815;BME280;16708;50.426;7.664;2023-05-03T08:14:03;997.98;;;10.15;78.58
29815;BME280;16708;50.426;7.664;2023-05-03T08:18:58;997.95;;;10.26;79.20
29815;BME280;16708;50.426;7.664;2023-05-03T08:23:52;997.99;;;10.47;77.04
29815;BME280;16708;50.426;7.664;2023-05-03T08:28:46;997.97;;;10.77;74.17
29815;BME280;16708;50.426;7.664;2023-05-03T08:33:40;997.87;;;10.79;68.78
29815;BME280;16708;50.426;7.664;2023-05-03T08:38:34;997.83;;;11.06;70.31
29815;BME280;16708;50.426;7.664;2023-05-03T08:43:29;997.80;;;11.31;70.59
29815;BME280;16708;50.426;7.664;2023-05-03T08:48:24;997.78;;;11.66;67.22
29815;BME280;16708;50.426;7.664;2023-05-03T08:53:15;997.67;;;11.97;73.45
29815;BME280;16708;50.426;7.664;2023-05-03T08:58:09;997.82;;;12.11;61.61
29815;BME280;16708;50.426;7.664;2023-05-03T09:03:03;997.72;;;12.09;60.52
29815;BME280;16708;50.426;7.664;2023-05-03T09:07:58;997.73;;;12.13;60.27
29815;BME280;16708;50.426;7.664;2023-05-03T09:12:52;997.72;;;12.79;59.45
29815;BME280;16708;50.426;7.664;2023-05-03T09:17:46;997.75;;;12.55;56.62
29815;BME280;16708;50.426;7.664;2023-05-03T09:22:40;997.67;;;13.16;56.03
29815;BME280;16708;50.426;7.664;2023-05-03T09:37:23;997.59;;;14.84;47.70
29815;BME280;16708;50.426;7.664;2023-05-03T09:42:18;997.64;;;17.75;41.44
29815;BME280;16708;50.426;7.664;2023-05-03T09:47:14;997.72;;;18.24;38.58
29815;BME280;16708;50.426;7.664;2023-05-03T09:52:11;997.68;;;19.32;34.54
29815;BME280;16708;50.426;7.664;2023-05-03T09:57:06;997.63;;;18.89;34.76
29815;BME280;16708;50.426;7.664;2023-05-03T10:02:01;997.54;;;18.74;36.72
29815;BME280;16708;50.426;7.664;2023-05-03T10:06:56;997.50;;;20.16;32.34
29815;BME280;16708;50.426;7.664;2023-05-03T10:11:51;997.42;;;19.56;32.82
29815;BME280;16708;50.426;7.664;2023-05-03T10:26:35;997.27;;;19.41;31.67
29815;BME280;16708;50.426;7.664;2023-05-03T10:31:29;997.29;;;20.69;31.32
29815;BME280;16708;50.426;7.664;2023-05-03T10:41:18;997.29;;;20.99;32.10
29815;BME280;16708;50.426;7.664;2023-05-03T10:51:07;997.25;;;21.29;29.35
29815;BME280;16708;50.426;7.664;2023-05-03T10:56:00;997.24;;;21.49;31.37
29815;BME280;16708;50.426;7.664;2023-05-03T11:00:55;997.13;;;23.19;29.47
29815;BME280;16708;50.426;7.664;2023-05-03T11:10:44;997.03;;;21.66;27.21
29815;BME280;16708;50.426;7.664;2023-05-03T11:15:38;996.93;;;21.50;27.18
29815;BME280;16708;50.426;7.664;2023-05-03T11:20:29;996.87;;;22.25;26.00
29815;BME280;16708;50.426;7.664;2023-05-03T11:25:24;996.78;;;23.08;25.48
29815;BME280;16708;50.426;7.664;2023-05-03T11:30:18;996.76;;;23.38;25.30
29815;BME280;16708;50.426;7.664;2023-05-03T11:35:13;996.64;;;23.03;24.18
29815;BME280;16708;50.426;7.664;2023-05-03T11:40:10;996.60;;;23.84;22.85
29815;BME280;16708;50.426;7.664;2023-05-03T11:45:02;996.68;;;23.20;25.44
29815;BME280;16708;50.426;7.664;2023-05-03T11:49:56;996.68;;;23.95;26.40
29815;BME280;16708;50.426;7.664;2023-05-03T11:54:51;996.63;;;24.21;24.59
29815;BME280;16708;50.426;7.664;2023-05-03T12:04:38;996.55;;;24.88;24.07
29815;BME280;16708;50.426;7.664;2023-05-03T12:09:33;996.55;;;24.78;21.60
29815;BME280;16708;50.426;7.664;2023-05-03T12:14:27;996.52;;;25.73;22.81
29815;BME280;16708;50.426;7.664;2023-05-03T12:19:21;996.46;;;26.12;20.41
29815;BME280;16708;50.426;7.664;2023-05-03T12:24:16;996.43;;;24.91;22.58
29815;BME280;16708;50.426;7.664;2023-05-03T12:29:10;996.29;;;25.74;20.45
29815;BME280;16708;50.426;7.664;2023-05-03T12:34:04;996.20;;;27.35;21.46
29815;BME280;16708;50.426;7.664;2023-05-03T12:38:59;996.14;;;25.40;20.33
29815;BME280;16708;50.426;7.664;2023-05-03T12:43:53;996.19;;;25.39;21.88
29815;BME280;16708;50.426;7.664;2023-05-03T12:48:48;996.03;;;24.31;22.18
29815;BME280;16708;50.426;7.664;2023-05-03T12:53:42;996.07;;;24.97;22.43
29815;BME280;16708;50.426;7.664;2023-05-03T12:58:36;996.04;;;26.01;21.38
29815;BME280;16708;50.426;7.664;2023-05-03T13:03:31;996.02;;;26.63;21.03
29815;BME280;16708;50.426;7.664;2023-05-03T13:08:25;995.88;;;26.02;20.65
29815;BME280;16708;50.426;7.664;2023-05-03T13:13:19;995.91;;;25.58;21.04
29815;BME280;16708;50.426;7.664;2023-05-03T13:18:13;995.86;;;24.68;21.74
29815;BME280;16708;50.426;7.664;2023-05-03T13:23:08;995.76;;;24.38;22.83
29815;BME280;16708;50.426;7.664;2023-05-03T13:28:02;995.61;;;25.78;20.77
29815;BME280;16708;50.426;7.664;2023-05-03T13:32:57;995.60;;;26.35;19.96
29815;BME280;16708;50.426;7.664;2023-05-03T13:37:49;995.60;;;26.41;19.23
29815;BME280;16708;50.426;7.664;2023-05-03T13:42:43;995.53;;;26.76;19.92
29815;BME280;16708;50.426;7.664;2023-05-03T13:47:37;995.43;;;26.03;20.24
29815;BME280;16708;50.426;7.664;2023-05-03T13:52:31;995.40;;;27.73;19.23
29815;BME280;16708;50.426;7.664;2023-05-03T13:57:26;995.29;;;28.61;18.80
29815;BME280;16708;50.426;7.664;2023-05-03T14:02:20;995.25;;;27.28;18.08
29815;BME280;16708;50.426;7.664;2023-05-03T14:07:14;995.21;;;27.37;18.33
29815;BME280;16708;50.426;7.664;2023-05-03T14:12:09;995.06;;;27.14;19.47
29815;BME280;16708;50.426;7.664;2023-05-03T14:17:03;994.97;;;28.62;18.44
29815;BME280;16708;50.426;7.664;2023-05-03T14:21:58;994.95;;;29.11;17.17
29815;BME280;16708;50.426;7.664;2023-05-03T14:26:52;994.94;;;28.22;16.77
29815;BME280;16708;50.426;7.664;2023-05-03T14:31:46;994.95;;;28.22;17.49
29815;BME280;16708;50.426;7.664;2023-05-03T14:36:38;994.90;;;27.64;18.48
29815;BME280;16708;50.426;7.664;2023-05-03T14:41:32;994.74;;;27.28;19.69
29815;BME280;16708;50.426;7.664;2023-05-03T14:46:26;994.75;;;27.49;17.94
29815;BME280;16708;50.426;7.664;2023-05-03T14:51:18;994.73;;;27.96;16.21
29815;BME280;16708;50.426;7.664;2023-05-03T14:56:12;994.64;;;26.46;17.88
29815;BME280;16708;50.426;7.664;2023-05-03T15:01:06;994.65;;;26.29;18.20
29815;BME280;16708;50.426;7.664;2023-05-03T15:06:00;994.59;;;26.89;18.60
29815;BME280;16708;50.426;7.664;2023-05-03T15:10:54;994.63;;;27.62;18.33
29815;BME280;16708;50.426;7.664;2023-05-03T15:15:48;994.72;;;27.97;18.03
29815;BME280;16708;50.426;7.664;2023-05-03T15:20:43;994.67;;;29.19;17.21
29815;BME280;16708;50.426;7.664;2023-05-03T15:25:36;994.62;;;27.19;18.37
29815;BME280;16708;50.426;7.664;2023-05-03T15:30:28;994.58;;;27.13;19.23
29815;BME280;16708;50.426;7.664;2023-05-03T15:35:23;994.54;;;28.26;16.90
29815;BME280;16708;50.426;7.664;2023-05-03T15:40:16;994.48;;;29.38;16.92
29815;BME280;16708;50.426;7.664;2023-05-03T15:45:11;994.53;;;27.85;16.74
29815;BME280;16708;50.426;7.664;2023-05-03T15:50:04;994.39;;;29.05;16.51
29815;BME280;16708;50.426;7.664;2023-05-03T15:54:59;994.47;;;28.39;17.12
29815;BME280;16708;50.426;7.664;2023-05-03T15:59:53;994.45;;;28.85;17.91
29815;BME280;16708;50.426;7.664;2023-05-03T16:04:47;994.42;;;25.56;19.41
29815;BME280;16708;50.426;7.664;2023-05-03T16:09:41;994.44;;;27.60;18.97
29815;BME280;16708;50.426;7.664;2023-05-03T16:14:35;994.40;;;27.31;18.66
29815;BME280;16708;50.426;7.664;2023-05-03T16:19:30;994.36;;;27.45;18.96
29815;BME280;16708;50.426;7.664;2023-05-03T16:24:23;994.39;;;27.32;18.38
29815;BME280;16708;50.426;7.664;2023-05-03T16:29:17;994.38;;;26.72;19.03
29815;BME280;16708;50.426;7.664;2023-05-03T16:34:11;994.35;;;26.94;18.05
29815;BME280;16708;50.426;7.664;2023-05-03T16:39:06;994.30;;;27.08;19.12
29815;BME280;16708;50.426;7.664;2023-05-03T16:44:00;994.34;;;25.68;19.57
29815;BME280;16708;50.426;7.664;2023-05-03T16:48:54;994.37;;;26.02;20.27
29815;BME280;16708;50.426;7.664;2023-05-03T16:53:48;994.26;;;26.76;19.47
29815;BME280;16708;50.426;7.664;2023-05-03T16:58:42;994.22;;;26.31;19.80
29815;BME280;16708;50.426;7.664;2023-05-03T17:03:36;994.21;;;25.14;20.79
29815;BME280;16708;50.426;7.664;2023-05-03T17:08:30;994.23;;;24.88;21.63
29815;BME280;16708;50.426;7.664;2023-05-03T17:13:24;994.16;;;24.77;21.26
29815;BME280;16708;50.426;7.664;2023-05-03T17:18:19;994.14;;;23.62;23.04
29815;BME280;16708;50.426;7.664;2023-05-03T17:23:11;994.18;;;26.07;21.32
29815;BME280;16708;50.426;7.664;2023-05-03T17:28:05;994.19;;;24.38;22.75
29815;BME280;16708;50.426;7.664;2023-05-03T17:32:59;994.15;;;23.67;23.04
29815;BME280;16708;50.426;7.664;2023-05-03T17:37:53;994.09;;;24.70;22.06
29815;BME280;16708;50.426;7.664;2023-05-03T17:42:47;994.08;;;23.45;24.20
29815;BME280;16708;50.426;7.664;2023-05-03T17:47:41;994.15;;;23.69;23.32
29815;BME280;16708;50.426;7.664;2023-05-03T17:52:33;994.12;;;22.76;23.96
29815;BME280;16708;50.426;7.664;2023-05-03T17:57:27;994.02;;;22.57;24.83
29815;BME280;16708;50.426;7.664;2023-05-03T18:02:21;994.08;;;21.91;25.58
29815;BME280;16708;50.426;7.664;2023-05-03T18:07:14;994.07;;;20.46;27.81
29815;BME280;16708;50.426;7.664;2023-05-03T18:12:08;994.03;;;18.82;29.67
29815;BME280;16708;50.426;7.664;2023-05-03T18:17:02;994.01;;;17.52;31.84
29815;BME280;16708;50.426;7.664;2023-05-03T18:21:55;994.01;;;16.95;33.16
29815;BME280;16708;50.426;7.664;2023-05-03T18:26:46;994.12;;;16.16;36.02
29815;BME280;16708;50.426;7.664;2023-05-03T18:31:39;994.09;;;15.84;36.64
29815;BME280;16708;50.426;7.664;2023-05-03T18:36:33;994.11;;;15.82;36.83
29815;BME280;16708;50.426;7.664;2023-05-03T18:41:26;994.15;;;15.57;37.73
29815;BME280;16708;50.426;7.664;2023-05-03T18:46:21;994.17;;;15.33;38.62
29815;BME280;16708;50.426;7.664;2023-05-03T18:51:15;994.14;;;14.94;40.52
29815;BME280;16708;50.426;7.664;2023-05-03T18:56:09;994.10;;;14.83;40.72
29815;BME280;16708;50.426;7.664;2023-05-03T19:01:03;994.17;;;14.48;41.99
29815;BME280;16708;50.426;7.664;2023-05-03T19:05:57;994.13;;;14.16;43.26
29815;BME280;16708;50.426;7.664;2023-05-03T19:10:51;994.11;;;13.99;46.06
29815;BME280;16708;50.426;7.664;2023-05-03T19:15:44;994.14;;;13.76;45.72
29815;BME280;16708;50.426;7.664;2023-05-03T19:20:38;994.10;;;13.75;48.01
29815;BME280;16708;50.426;7.664;2023-05-03T19:25:32;994.10;;;13.51;49.11
29815;BME280;16708;50.426;7.664;2023-05-03T19:30:26;994.14;;;13.38;48.97
29815;BME280;16708;50.426;7.664;2023-05-03T19:35:21;994.13;;;13.15;50.21
29815;BME280;16708;50.426;7.664;2023-05-03T19:40:15;994.13;;;13.01;52.07
29815;BME280;16708;50.426;7.664;2023-05-03T19:45:09;994.16;;;12.84;53.18
29815;BME280;16708;50.426;7.664;2023-05-03T19:50:03;994.17;;;12.70;53.90
29815;BME280;16708;50.426;7.664;2023-05-03T19:54:57;994.18;;;12.47;56.73
29815;BME280;16708;50.426;7.664;2023-05-03T19:59:50;994.13;;;12.49;58.00
29815;BME280;16708;50.426;7.664;2023-05-03T20:04:43;994.16;;;12.33;59.94
29815;BME280;16708;50.426;7.664;2023-05-03T20:09:37;994.10;;;12.22;61.61
29815;BME280;16708;50.426;7.664;2023-05-03T20:14:31;994.12;;;12.16;62.29
29815;BME280;16708;50.426;7.664;2023-05-03T20:19:24;994.09;;;12.09;61.78
29815;BME280;16708;50.426;7.664;2023-05-03T20:24:18;994.08;;;11.86;64.44
29815;BME280;16708;50.426;7.664;2023-05-03T20:29:12;994.11;;;11.70;69.61
29815;BME280;16708;50.426;7.664;2023-05-03T20:34:07;994.06;;;11.62;72.38
29815;BME280;16708;50.426;7.664;2023-05-03T20:39:01;993.88;;;11.63;72.65
29815;BME280;16708;50.426;7.664;2023-05-03T20:43:55;993.91;;;11.74;70.83
29815;BME280;16708;50.426;7.664;2023-05-03T20:48:49;994.00;;;11.65;72.03
29815;BME280;16708;50.426;7.664;2023-05-03T20:53:43;994.01;;;11.50;75.53
29815;BME280;16708;50.426;7.664;2023-05-03T20:58:37;993.97;;;11.44;77.13
29815;BME280;16708;50.426;7.664;2023-05-03T21:03:29;993.81;;;11.50;76.41
29815;BME280;16708;50.426;7.664;2023-05-03T21:08:24;993.89;;;11.52;76.73
29815;BME280;16708;50.426;7.664;2023-05-03T21:13:18;993.84;;;11.73;73.14
29815;BME280;16708;50.426;7.664;2023-05-03T21:18:10;993.90;;;11.88;72.37
29815;BME280;16708;50.426;7.664;2023-05-03T21:23:04;994.00;;;11.98;70.59
29815;BME280;16708;50.426;7.664;2023-05-03T21:27:59;993.91;;;12.01;69.36
29815;BME280;16708;50.426;7.664;2023-05-03T21:32:53;993.81;;;12.06;69.86
29815;BME280;16708;50.426;7.664;2023-05-03T21:37:47;993.71;;;12.03;68.48
29815;BME280;16708;50.426;7.664;2023-05-03T21:42:41;993.68;;;12.09;66.48
29815;BME280;16708;50.426;7.664;2023-05-03T21:47:35;993.66;;;12.03;66.79
29815;BME280;16708;50.426;7.664;2023-05-03T21:52:30;993.60;;;12.04;65.88
29815;BME280;16708;50.426;7.664;2023-05-03T21:57:24;993.50;;;12.06;63.80
29815;BME280;16708;50.426;7.664;2023-05-03T22:02:18;993.51;;;12.08;61.38
29815;BME280;16708;50.426;7.664;2023-05-03T22:07:10;993.51;;;12.10;60.21
29815;BME280;16708;50.426;7.664;2023-05-03T22:12:05;993.44;;;12.01;61.12
29815;BME280;16708;50.426;7.664;2023-05-03T22:17:01;993.40;;;11.92;61.57
29815;BME280;16708;50.426;7.664;2023-05-03T22:21:53;993.49;;;11.77;63.60
29815;BME280;16708;50.426;7.664;2023-05-03T22:26:47;993.45;;;11.66;64.61
29815;BME280;16708;50.426;7.664;2023-05-03T22:31:41;993.45;;;11.54;65.53
29815;BME280;16708;50.426;7.664;2023-05-03T22:36:36;993.39;;;11.44;66.86
29815;BME280;16708;50.426;7.664;2023-05-03T22:41:30;993.33;;;11.35;67.82
29815;BME280;16708;50.426;7.664;2023-05-03T22:46:24;993.42;;;11.16;71.55
29815;BME280;16708;50.426;7.664;2023-05-03T22:51:18;993.40;;;11.05;72.65
29815;BME280;16708;50.426;7.664;2023-05-03T22:56:12;993.35;;;10.97;73.76
29815;BME280;16708;50.426;7.664;2023-05-03T23:01:06;993.29;;;10.95;74.14
29815;BME280;16708;50.426;7.664;2023-05-03T23:06:01;993.26;;;10.83;75.69
29815;BME280;16708;50.426;7.664;2023-05-03T23:10:55;993.28;;;10.65;78.54
29815;BME280;16708;50.426;7.664;2023-05-03T23:15:49;993.30;;;10.46;81.80
29815;BME280;16708;50.426;7.664;2023-05-03T23:20:42;993.28;;;10.24;83.15
29815;BME280;16708;50.426;7.664;2023-05-03T23:25:36;993.24;;;10.11;88.82
29815;BME280;16708;50.426;7.664;2023-05-03T23:30:30;993.26;;;9.59;93.69
29815;BME280;16708;50.426;7.664;2023-05-03T23:35:24;993.27;;;9.33;100.00
29815;BME280;16708;50.426;7.664;2023-05-03T23:40:19;993.21;;;9.23;100.00
29815;BME280;16708;50.426;7.664;2023-05-03T23:45:13;993.16;;;9.24;100.00
29815;BME280;16708;50.426;7.664;2023-05-03T23:50:07;993.10;;;9.08;100.00
29815;BME280;16708;50.426;7.664;2023-05-03T23:55:01;993.09;;;8.92;100.00
29815;BME280;16708;50.426;7.664;2023-05-03T23:59:55;993.06;;;8.93;100.00
